sensor_id;sensor_type;location;lat;lon;timestamp;P1;durP1;ratioP1;P2;durP2;ratioP2
21754;SDS011;11039;50.028;19.938;2024-03-02T00:00:06;5.75;;;4.90;;
21754;SDS011;11039;50.028;19.938;2024-03-02T00:02:43;6.28;;;5.00;;
21754;SDS011;11039;50.028;19.938;2024-03-02T00:05:11;5.43;;;4.50;;
21754;SDS011;11039;50.028;19.938;2024-03-02T00:07:37;5.57;;;4.90;;
21754;SDS011;11039;50.028;19.938;2024-03-02T00:10:07;6.13;;;4.90;;
21754;SDS011;11039;50.028;19.938;2024-03-02T00:12:35;6.80;;;4.45;;
21754;SDS011;11039;50.028;19.938;2024-03-02T00:15:01;5.80;;;4.38;;
21754;SDS011;11039;50.028;19.938;2024-03-02T00:17:30;5.40;;;4.40;;
21754;SDS011;11039;50.028;19.938;2024-03-02T00:19:56;5.63;;;4.22;;
21754;SDS011;11039;50.028;19.938;2024-03-02T00:22:22;6.03;;;4.45;;
21754;SDS011;11039;50.028;19.938;2024-03-02T00:24:48;7.18;;;4.72;;
21754;SDS011;11039;50.028;19.938;2024-03-02T00:27:14;5.38;;;4.43;;
21754;SDS011;11039;50.028;19.938;2024-03-02T00:29:41;5.97;;;4.85;;
21754;SDS011;11039;50.028;19.938;2024-03-02T00:32:12;5.75;;;4.70;;
21754;SDS011;11039;50.028;19.938;2024-03-02T00:34:38;6.20;;;4.97;;
21754;SDS011;11039;50.028;19.938;2024-03-02T00:37:04;5.90;;;4.25;;
21754;SDS011;11039;50.028;19.938;2024-03-02T00:39:30;5.78;;;4.53;;
21754;SDS011;11039;50.028;19.938;2024-03-02T00:41:57;5.30;;;4.22;;
21754;SDS011;11039;50.028;19.938;2024-03-02T00:44:24;5.80;;;4.90;;
21754;SDS011;11039;50.028;19.938;2024-03-02T00:46:59;5.57;;;4.68;;
21754;SDS011;11039;50.028;19.938;2024-03-02T00:49:25;6.18;;;4.45;;
21754;SDS011;11039;50.028;19.938;2024-03-02T00:51:53;6.68;;;4.88;;
21754;SDS011;11039;50.028;19.938;2024-03-02T00:54:23;6.43;;;5.00;;
21754;SDS011;11039;50.028;19.938;2024-03-02T00:56:50;6.13;;;4.97;;
21754;SDS011;11039;50.028;19.938;2024-03-02T00:59:16;5.68;;;4.57;;
21754;SDS011;11039;50.028;19.938;2024-03-02T01:01:43;5.60;;;4.22;;
21754;SDS011;11039;50.028;19.938;2024-03-02T01:04:09;5.90;;;5.07;;
21754;SDS011;11039;50.028;19.938;2024-03-02T01:06:35;5.68;;;4.75;;
21754;SDS011;11039;50.028;19.938;2024-03-02T01:09:02;5.32;;;4.30;;
21754;SDS011;11039;50.028;19.938;2024-03-02T01:11:28;5.18;;;4.53;;
21754;SDS011;11039;50.028;19.938;2024-03-02T01:13:55;6.15;;;4.70;;
21754;SDS011;11039;50.028;19.938;2024-03-02T01:16:21;5.38;;;4.88;;
21754;SDS011;11039;50.028;19.938;2024-03-02T01:18:47;6.00;;;4.82;;
21754;SDS011;11039;50.028;19.938;2024-03-02T01:21:14;5.05;;;4.18;;
21754;SDS011;11039;50.028;19.938;2024-03-02T01:23:40;5.57;;;4.55;;
21754;SDS011;11039;50.028;19.938;2024-03-02T01:26:06;5.35;;;4.70;;
21754;SDS011;11039;50.028;19.938;2024-03-02T01:28:32;6.38;;;4.90;;
21754;SDS011;11039;50.028;19.938;2024-03-02T01:30:58;5.35;;;4.45;;
21754;SDS011;11039;50.028;19.938;2024-03-02T01:33:24;5.53;;;4.70;;
21754;SDS011;11039;50.028;19.938;2024-03-02T01:35:50;5.18;;;4.55;;
21754;SDS011;11039;50.028;19.938;2024-03-02T01:38:16;5.32;;;4.38;;
21754;SDS011;11039;50.028;19.938;2024-03-02T01:40:42;6.85;;;5.15;;
21754;SDS011;11039;50.028;19.938;2024-03-02T01:43:09;5.20;;;4.55;;
21754;SDS011;11039;50.028;19.938;2024-03-02T01:45:35;5.40;;;4.60;;
21754;SDS011;11039;50.028;19.938;2024-03-02T01:48:03;5.90;;;4.72;;
21754;SDS011;11039;50.028;19.938;2024-03-02T01:50:31;6.13;;;4.80;;
21754;SDS011;11039;50.028;19.938;2024-03-02T01:52:57;5.30;;;4.40;;
21754;SDS011;11039;50.028;19.938;2024-03-02T01:55:23;4.95;;;4.25;;
21754;SDS011;11039;50.028;19.938;2024-03-02T01:57:50;5.57;;;4.43;;
21754;SDS011;11039;50.028;19.938;2024-03-02T02:00:18;5.90;;;5.03;;
21754;SDS011;11039;50.028;19.938;2024-03-02T02:02:44;5.80;;;4.90;;
21754;SDS011;11039;50.028;19.938;2024-03-02T02:05:10;6.45;;;4.78;;
21754;SDS011;11039;50.028;19.938;2024-03-02T02:07:36;7.85;;;5.18;;
21754;SDS011;11039;50.028;19.938;2024-03-02T02:10:02;5.85;;;4.60;;
21754;SDS011;11039;50.028;19.938;2024-03-02T02:12:28;5.95;;;4.70;;
21754;SDS011;11039;50.028;19.938;2024-03-02T02:14:55;5.03;;;4.13;;
21754;SDS011;11039;50.028;19.938;2024-03-02T02:17:21;5.57;;;4.57;;
21754;SDS011;11039;50.028;19.938;2024-03-02T02:19:47;5.72;;;4.57;;
21754;SDS011;11039;50.028;19.938;2024-03-02T02:22:13;4.90;;;4.22;;
21754;SDS011;11039;50.028;19.938;2024-03-02T02:24:39;5.90;;;4.55;;
21754;SDS011;11039;50.028;19.938;2024-03-02T02:27:06;4.90;;;4.13;;
21754;SDS011;11039;50.028;19.938;2024-03-02T02:29:32;5.30;;;4.30;;
21754;SDS011;11039;50.028;19.938;2024-03-02T02:31:58;5.80;;;4.70;;
21754;SDS011;11039;50.028;19.938;2024-03-02T02:34:24;5.00;;;3.95;;
21754;SDS011;11039;50.028;19.938;2024-03-02T02:36:50;5.53;;;4.32;;
21754;SDS011;11039;50.028;19.938;2024-03-02T02:39:17;5.65;;;4.85;;
21754;SDS011;11039;50.028;19.938;2024-03-02T02:41:45;5.85;;;4.68;;
21754;SDS011;11039;50.028;19.938;2024-03-02T02:44:12;7.45;;;4.80;;
21754;SDS011;11039;50.028;19.938;2024-03-02T02:46:39;5.95;;;5.07;;
21754;SDS011;11039;50.028;19.938;2024-03-02T02:49:05;4.97;;;4.22;;
21754;SDS011;11039;50.028;19.938;2024-03-02T02:51:31;5.45;;;4.88;;
21754;SDS011;11039;50.028;19.938;2024-03-02T02:53:57;4.90;;;4.30;;
21754;SDS011;11039;50.028;19.938;2024-03-02T02:56:23;6.15;;;4.85;;
21754;SDS011;11039;50.028;19.938;2024-03-02T02:58:49;6.22;;;4.55;;
21754;SDS011;11039;50.028;19.938;2024-03-02T03:01:16;4.82;;;3.92;;
21754;SDS011;11039;50.028;19.938;2024-03-02T03:03:43;5.97;;;4.50;;
21754;SDS011;11039;50.028;19.938;2024-03-02T03:06:09;5.70;;;4.35;;
21754;SDS011;11039;50.028;19.938;2024-03-02T03:08:35;4.80;;;4.30;;
21754;SDS011;11039;50.028;19.938;2024-03-02T03:11:01;6.10;;;4.63;;
21754;SDS011;11039;50.028;19.938;2024-03-02T03:13:27;5.80;;;4.30;;
21754;SDS011;11039;50.028;19.938;2024-03-02T03:15:53;5.30;;;4.70;;
21754;SDS011;11039;50.028;19.938;2024-03-02T03:18:19;6.40;;;4.60;;
21754;SDS011;11039;50.028;19.938;2024-03-02T03:20:45;5.60;;;4.53;;
21754;SDS011;11039;50.028;19.938;2024-03-02T03:23:11;5.50;;;4.65;;
21754;SDS011;11039;50.028;19.938;2024-03-02T03:25:42;5.47;;;3.97;;
21754;SDS011;11039;50.028;19.938;2024-03-02T03:28:08;5.50;;;4.57;;
21754;SDS011;11039;50.028;19.938;2024-03-02T03:30:37;5.55;;;4.32;;
21754;SDS011;11039;50.028;19.938;2024-03-02T03:33:04;4.72;;;4.22;;
21754;SDS011;11039;50.028;19.938;2024-03-02T03:35:33;5.65;;;4.10;;
21754;SDS011;11039;50.028;19.938;2024-03-02T03:37:59;5.38;;;4.40;;
21754;SDS011;11039;50.028;19.938;2024-03-02T03:40:26;4.95;;;4.13;;
21754;SDS011;11039;50.028;19.938;2024-03-02T03:42:52;4.78;;;3.92;;
21754;SDS011;11039;50.028;19.938;2024-03-02T03:45:18;5.38;;;4.53;;
21754;SDS011;11039;50.028;19.938;2024-03-02T03:47:45;5.60;;;4.20;;
21754;SDS011;11039;50.028;19.938;2024-03-02T03:50:11;5.70;;;4.57;;
21754;SDS011;11039;50.028;19.938;2024-03-02T03:52:37;5.50;;;4.25;;
21754;SDS011;11039;50.028;19.938;2024-03-02T03:55:03;4.47;;;3.88;;
21754;SDS011;11039;50.028;19.938;2024-03-02T03:57:32;5.18;;;4.28;;
21754;SDS011;11039;50.028;19.938;2024-03-02T03:59:58;5.68;;;4.72;;
21754;SDS011;11039;50.028;19.938;2024-03-02T04:02:25;5.03;;;4.43;;
21754;SDS011;11039;50.028;19.938;2024-03-02T04:04:51;5.47;;;4.10;;
21754;SDS011;11039;50.028;19.938;2024-03-02T04:07:17;5.18;;;4.32;;
21754;SDS011;11039;50.028;19.938;2024-03-02T04:09:43;5.13;;;4.38;;
21754;SDS011;11039;50.028;19.938;2024-03-02T04:12:09;5.65;;;4.40;;
21754;SDS011;11039;50.028;19.938;2024-03-02T04:14:38;6.45;;;4.38;;
21754;SDS011;11039;50.028;19.938;2024-03-02T04:17:04;5.25;;;4.20;;
21754;SDS011;11039;50.028;19.938;2024-03-02T04:19:30;5.75;;;4.80;;
21754;SDS011;11039;50.028;19.938;2024-03-02T04:21:56;5.30;;;4.28;;
21754;SDS011;11039;50.028;19.938;2024-03-02T04:24:22;6.22;;;4.68;;
21754;SDS011;11039;50.028;19.938;2024-03-02T04:26:48;5.70;;;5.00;;
21754;SDS011;11039;50.028;19.938;2024-03-02T04:29:14;4.47;;;3.60;;
21754;SDS011;11039;50.028;19.938;2024-03-02T04:31:40;6.15;;;4.53;;
21754;SDS011;11039;50.028;19.938;2024-03-02T04:34:06;5.80;;;4.75;;
21754;SDS011;11039;50.028;19.938;2024-03-02T04:36:33;4.53;;;4.05;;
21754;SDS011;11039;50.028;19.938;2024-03-02T04:38:59;5.18;;;4.32;;
21754;SDS011;11039;50.028;19.938;2024-03-02T04:41:25;5.45;;;4.60;;
21754;SDS011;11039;50.028;19.938;2024-03-02T04:43:51;5.30;;;4.30;;
21754;SDS011;11039;50.028;19.938;2024-03-02T04:46:17;4.78;;;4.10;;
21754;SDS011;11039;50.028;19.938;2024-03-02T04:48:43;4.45;;;3.92;;
21754;SDS011;11039;50.028;19.938;2024-03-02T04:51:09;5.68;;;4.35;;
21754;SDS011;11039;50.028;19.938;2024-03-02T04:53:36;4.75;;;4.20;;
21754;SDS011;11039;50.028;19.938;2024-03-02T04:56:03;5.30;;;4.00;;
21754;SDS011;11039;50.028;19.938;2024-03-02T04:58:53;5.07;;;4.10;;
21754;SDS011;11039;50.028;19.938;2024-03-02T05:01:19;4.93;;;4.35;;
21754;SDS011;11039;50.028;19.938;2024-03-02T05:03:45;4.60;;;3.85;;
21754;SDS011;11039;50.028;19.938;2024-03-02T05:06:11;4.63;;;4.00;;
21754;SDS011;11039;50.028;19.938;2024-03-02T05:08:37;5.45;;;4.45;;
21754;SDS011;11039;50.028;19.938;2024-03-02T05:11:03;5.13;;;4.07;;
21754;SDS011;11039;50.028;19.938;2024-03-02T05:13:48;5.72;;;4.32;;
21754;SDS011;11039;50.028;19.938;2024-03-02T05:16:14;6.95;;;4.68;;
21754;SDS011;11039;50.028;19.938;2024-03-02T05:18:40;5.03;;;4.00;;
21754;SDS011;11039;50.028;19.938;2024-03-02T05:21:06;4.72;;;3.85;;
21754;SDS011;11039;50.028;19.938;2024-03-02T05:23:32;5.25;;;3.95;;
21754;SDS011;11039;50.028;19.938;2024-03-02T05:25:58;5.90;;;3.95;;
21754;SDS011;11039;50.028;19.938;2024-03-02T05:28:24;4.97;;;4.25;;
21754;SDS011;11039;50.028;19.938;2024-03-02T05:30:50;4.93;;;3.80;;
21754;SDS011;11039;50.028;19.938;2024-03-02T05:33:19;3.85;;;3.45;;
21754;SDS011;11039;50.028;19.938;2024-03-02T05:35:47;4.50;;;3.78;;
21754;SDS011;11039;50.028;19.938;2024-03-02T05:38:15;5.35;;;3.95;;
21754;SDS011;11039;50.028;19.938;2024-03-02T05:40:41;4.95;;;4.32;;
21754;SDS011;11039;50.028;19.938;2024-03-02T05:43:07;4.05;;;3.65;;
21754;SDS011;11039;50.028;19.938;2024-03-02T05:45:33;5.20;;;3.47;;
21754;SDS011;11039;50.028;19.938;2024-03-02T05:47:59;4.68;;;3.28;;
21754;SDS011;11039;50.028;19.938;2024-03-02T05:50:25;5.00;;;3.92;;
21754;SDS011;11039;50.028;19.938;2024-03-02T05:52:51;4.88;;;3.58;;
21754;SDS011;11039;50.028;19.938;2024-03-02T05:55:17;4.68;;;4.13;;
21754;SDS011;11039;50.028;19.938;2024-03-02T05:57:43;4.07;;;3.10;;
21754;SDS011;11039;50.028;19.938;2024-03-02T06:00:09;4.22;;;3.60;;
21754;SDS011;11039;50.028;19.938;2024-03-02T06:02:39;5.03;;;4.38;;
21754;SDS011;11039;50.028;19.938;2024-03-02T06:05:05;4.38;;;3.78;;
21754;SDS011;11039;50.028;19.938;2024-03-02T06:07:34;4.30;;;3.90;;
21754;SDS011;11039;50.028;19.938;2024-03-02T06:10:00;4.78;;;3.65;;
21754;SDS011;11039;50.028;19.938;2024-03-02T06:12:26;4.53;;;3.80;;
21754;SDS011;11039;50.028;19.938;2024-03-02T06:14:52;4.10;;;3.60;;
21754;SDS011;11039;50.028;19.938;2024-03-02T06:17:18;3.72;;;3.33;;
21754;SDS011;11039;50.028;19.938;2024-03-02T06:19:44;4.60;;;3.67;;
21754;SDS011;11039;50.028;19.938;2024-03-02T06:22:11;5.63;;;3.85;;
21754;SDS011;11039;50.028;19.938;2024-03-02T06:24:37;3.70;;;3.30;;
21754;SDS011;11039;50.028;19.938;2024-03-02T06:27:03;4.18;;;3.65;;
21754;SDS011;11039;50.028;19.938;2024-03-02T06:29:32;5.28;;;3.88;;
21754;SDS011;11039;50.028;19.938;2024-03-02T06:31:58;5.07;;;3.90;;
21754;SDS011;11039;50.028;19.938;2024-03-02T06:34:25;4.25;;;3.65;;
21754;SDS011;11039;50.028;19.938;2024-03-02T06:36:51;4.55;;;3.95;;
21754;SDS011;11039;50.028;19.938;2024-03-02T06:39:17;4.00;;;3.33;;
21754;SDS011;11039;50.028;19.938;2024-03-02T06:41:43;4.25;;;3.60;;
21754;SDS011;11039;50.028;19.938;2024-03-02T06:44:09;3.53;;;3.22;;
21754;SDS011;11039;50.028;19.938;2024-03-02T06:46:35;4.22;;;3.40;;
21754;SDS011;11039;50.028;19.938;2024-03-02T06:49:01;4.47;;;3.65;;
21754;SDS011;11039;50.028;19.938;2024-03-02T06:51:29;4.78;;;3.28;;
21754;SDS011;11039;50.028;19.938;2024-03-02T06:53:54;3.83;;;3.30;;
21754;SDS011;11039;50.028;19.938;2024-03-02T06:56:21;4.30;;;3.72;;
21754;SDS011;11039;50.028;19.938;2024-03-02T06:58:47;4.38;;;3.88;;
21754;SDS011;11039;50.028;19.938;2024-03-02T07:01:13;3.78;;;3.38;;
21754;SDS011;11039;50.028;19.938;2024-03-02T07:03:39;4.57;;;3.90;;
21754;SDS011;11039;50.028;19.938;2024-03-02T07:06:05;3.67;;;3.25;;
21754;SDS011;11039;50.028;19.938;2024-03-02T07:08:31;4.40;;;3.85;;
21754;SDS011;11039;50.028;19.938;2024-03-02T07:10:57;4.65;;;3.75;;
21754;SDS011;11039;50.028;19.938;2024-03-02T07:13:23;3.50;;;3.08;;
21754;SDS011;11039;50.028;19.938;2024-03-02T07:15:49;4.20;;;3.47;;
21754;SDS011;11039;50.028;19.938;2024-03-02T07:18:28;3.80;;;3.42;;
21754;SDS011;11039;50.028;19.938;2024-03-02T07:20:54;3.67;;;3.33;;
21754;SDS011;11039;50.028;19.938;2024-03-02T07:23:20;4.15;;;3.67;;
21754;SDS011;11039;50.028;19.938;2024-03-02T07:25:52;3.55;;;3.22;;
21754;SDS011;11039;50.028;19.938;2024-03-02T07:28:20;4.97;;;3.67;;
21754;SDS011;11039;50.028;19.938;2024-03-02T07:30:46;4.40;;;4.00;;
21754;SDS011;11039;50.028;19.938;2024-03-02T07:33:13;4.82;;;3.95;;
21754;SDS011;11039;50.028;19.938;2024-03-02T07:35:41;4.40;;;3.30;;
21754;SDS011;11039;50.028;19.938;2024-03-02T07:38:08;3.95;;;3.28;;
21754;SDS011;11039;50.028;19.938;2024-03-02T07:40:34;4.35;;;3.53;;
21754;SDS011;11039;50.028;19.938;2024-03-02T07:43:00;4.35;;;3.33;;
21754;SDS011;11039;50.028;19.938;2024-03-02T07:45:26;4.00;;;3.60;;
21754;SDS011;11039;50.028;19.938;2024-03-02T07:47:52;5.13;;;3.50;;
21754;SDS011;11039;50.028;19.938;2024-03-02T07:50:18;4.35;;;3.30;;
21754;SDS011;11039;50.028;19.938;2024-03-02T07:52:44;3.90;;;3.40;;
21754;SDS011;11039;50.028;19.938;2024-03-02T07:55:10;4.45;;;3.40;;
21754;SDS011;11039;50.028;19.938;2024-03-02T07:57:36;4.03;;;3.63;;
21754;SDS011;11039;50.028;19.938;2024-03-02T08:00:03;3.90;;;3.35;;
21754;SDS011;11039;50.028;19.938;2024-03-02T08:02:29;4.15;;;3.13;;
21754;SDS011;11039;50.028;19.938;2024-03-02T08:04:55;4.00;;;3.40;;
21754;SDS011;11039;50.028;19.938;2024-03-02T08:07:21;3.78;;;3.30;;
21754;SDS011;11039;50.028;19.938;2024-03-02T08:09:47;4.03;;;3.33;;
21754;SDS011;11039;50.028;19.938;2024-03-02T08:12:13;3.92;;;3.15;;
21754;SDS011;11039;50.028;19.938;2024-03-02T08:14:39;4.53;;;3.22;;
21754;SDS011;11039;50.028;19.938;2024-03-02T08:17:05;5.95;;;3.83;;
21754;SDS011;11039;50.028;19.938;2024-03-02T08:19:34;4.30;;;3.85;;
21754;SDS011;11039;50.028;19.938;2024-03-02T08:22:00;4.78;;;3.30;;
21754;SDS011;11039;50.028;19.938;2024-03-02T08:24:26;3.88;;;3.47;;
21754;SDS011;11039;50.028;19.938;2024-03-02T08:26:52;3.97;;;3.58;;
21754;SDS011;11039;50.028;19.938;2024-03-02T08:29:19;4.60;;;3.30;;
21754;SDS011;11039;50.028;19.938;2024-03-02T08:31:45;3.67;;;3.05;;
21754;SDS011;11039;50.028;19.938;2024-03-02T08:34:11;4.63;;;4.00;;
21754;SDS011;11039;50.028;19.938;2024-03-02T08:36:37;3.75;;;3.25;;
21754;SDS011;11039;50.028;19.938;2024-03-02T08:39:03;6.07;;;3.90;;
21754;SDS011;11039;50.028;19.938;2024-03-02T08:41:32;5.10;;;3.65;;
21754;SDS011;11039;50.028;19.938;2024-03-02T08:43:58;3.80;;;3.33;;
21754;SDS011;11039;50.028;19.938;2024-03-02T08:46:24;5.07;;;4.00;;
21754;SDS011;11039;50.028;19.938;2024-03-02T08:48:50;4.25;;;3.60;;
21754;SDS011;11039;50.028;19.938;2024-03-02T08:51:16;4.75;;;3.75;;
21754;SDS011;11039;50.028;19.938;2024-03-02T08:53:42;7.32;;;6.38;;
21754;SDS011;11039;50.028;19.938;2024-03-02T08:56:08;15.65;;;10.82;;
21754;SDS011;11039;50.028;19.938;2024-03-02T08:58:34;14.77;;;11.43;;
21754;SDS011;11039;50.028;19.938;2024-03-02T09:01:00;15.93;;;12.15;;
21754;SDS011;11039;50.028;19.938;2024-03-02T09:03:27;17.08;;;11.63;;
21754;SDS011;11039;50.028;19.938;2024-03-02T09:05:53;16.00;;;12.07;;
21754;SDS011;11039;50.028;19.938;2024-03-02T09:08:19;14.77;;;11.02;;
21754;SDS011;11039;50.028;19.938;2024-03-02T09:10:45;17.40;;;13.10;;
21754;SDS011;11039;50.028;19.938;2024-03-02T09:13:11;19.05;;;12.68;;
21754;SDS011;11039;50.028;19.938;2024-03-02T09:15:37;18.30;;;12.38;;
21754;SDS011;11039;50.028;19.938;2024-03-02T09:18:04;15.45;;;11.18;;
21754;SDS011;11039;50.028;19.938;2024-03-02T09:20:31;15.00;;;11.43;;
21754;SDS011;11039;50.028;19.938;2024-03-02T09:22:57;12.88;;;10.55;;
21754;SDS011;11039;50.028;19.938;2024-03-02T09:25:23;15.43;;;11.77;;
21754;SDS011;11039;50.028;19.938;2024-03-02T09:27:50;15.15;;;11.90;;
21754;SDS011;11039;50.028;19.938;2024-03-02T09:30:16;15.38;;;11.57;;
21754;SDS011;11039;50.028;19.938;2024-03-02T09:32:42;13.98;;;11.23;;
21754;SDS011;11039;50.028;19.938;2024-03-02T09:35:09;14.98;;;11.73;;
21754;SDS011;11039;50.028;19.938;2024-03-02T09:37:37;15.45;;;11.57;;
21754;SDS011;11039;50.028;19.938;2024-03-02T09:40:03;13.23;;;11.23;;
21754;SDS011;11039;50.028;19.938;2024-03-02T09:42:29;16.27;;;11.35;;
21754;SDS011;11039;50.028;19.938;2024-03-02T09:44:55;13.48;;;10.73;;
21754;SDS011;11039;50.028;19.938;2024-03-02T09:47:22;15.15;;;11.63;;
21754;SDS011;11039;50.028;19.938;2024-03-02T09:49:48;16.10;;;12.50;;
21754;SDS011;11039;50.028;19.938;2024-03-02T09:52:15;14.52;;;11.75;;
21754;SDS011;11039;50.028;19.938;2024-03-02T09:54:41;16.55;;;11.50;;
21754;SDS011;11039;50.028;19.938;2024-03-02T09:57:07;15.32;;;12.20;;
21754;SDS011;11039;50.028;19.938;2024-03-02T09:59:33;15.30;;;11.68;;
21754;SDS011;11039;50.028;19.938;2024-03-02T10:02:00;15.75;;;11.05;;
21754;SDS011;11039;50.028;19.938;2024-03-02T10:04:28;16.85;;;12.38;;
21754;SDS011;11039;50.028;19.938;2024-03-02T10:07:11;15.68;;;12.10;;
21754;SDS011;11039;50.028;19.938;2024-03-02T10:09:38;17.75;;;12.45;;
21754;SDS011;11039;50.028;19.938;2024-03-02T10:12:05;14.60;;;10.70;;
21754;SDS011;11039;50.028;19.938;2024-03-02T10:14:32;21.42;;;15.82;;
21754;SDS011;11039;50.028;19.938;2024-03-02T10:17:05;22.38;;;15.65;;
21754;SDS011;11039;50.028;19.938;2024-03-02T10:19:31;13.30;;;10.13;;
21754;SDS011;11039;50.028;19.938;2024-03-02T10:22:03;8.18;;;6.93;;
21754;SDS011;11039;50.028;19.938;2024-03-02T10:24:40;11.63;;;8.98;;
21754;SDS011;11039;50.028;19.938;2024-03-02T10:27:10;11.82;;;8.43;;
21754;SDS011;11039;50.028;19.938;2024-03-02T10:29:37;10.88;;;7.97;;
21754;SDS011;11039;50.028;19.938;2024-03-02T10:32:04;10.00;;;7.78;;
21754;SDS011;11039;50.028;19.938;2024-03-02T10:34:31;9.15;;;6.50;;
21754;SDS011;11039;50.028;19.938;2024-03-02T10:36:58;8.38;;;6.15;;
21754;SDS011;11039;50.028;19.938;2024-03-02T10:39:24;8.85;;;6.90;;
21754;SDS011;11039;50.028;19.938;2024-03-02T10:41:50;9.45;;;6.60;;
21754;SDS011;11039;50.028;19.938;2024-03-02T10:44:18;8.52;;;6.20;;
21754;SDS011;11039;50.028;19.938;2024-03-02T10:46:45;8.25;;;6.30;;
21754;SDS011;11039;50.028;19.938;2024-03-02T10:49:12;8.07;;;6.20;;
21754;SDS011;11039;50.028;19.938;2024-03-02T10:51:38;7.90;;;6.18;;
21754;SDS011;11039;50.028;19.938;2024-03-02T10:54:04;7.07;;;5.88;;
21754;SDS011;11039;50.028;19.938;2024-03-02T10:56:31;7.13;;;5.53;;
21754;SDS011;11039;50.028;19.938;2024-03-02T11:01:47;6.45;;;5.55;;
21754;SDS011;11039;50.028;19.938;2024-03-02T11:04:13;6.93;;;5.68;;
21754;SDS011;11039;50.028;19.938;2024-03-02T11:06:43;7.45;;;5.50;;
21754;SDS011;11039;50.028;19.938;2024-03-02T11:09:12;6.13;;;5.03;;
21754;SDS011;11039;50.028;19.938;2024-03-02T11:11:42;7.30;;;5.60;;
21754;SDS011;11039;50.028;19.938;2024-03-02T11:14:13;6.00;;;5.28;;
21754;SDS011;11039;50.028;19.938;2024-03-02T11:16:39;8.05;;;5.63;;
21754;SDS011;11039;50.028;19.938;2024-03-02T11:19:07;8.05;;;5.80;;
21754;SDS011;11039;50.028;19.938;2024-03-02T11:21:34;6.50;;;5.20;;
21754;SDS011;11039;50.028;19.938;2024-03-02T11:24:20;5.68;;;5.07;;
21754;SDS011;11039;50.028;19.938;2024-03-02T11:26:47;6.10;;;5.25;;
21754;SDS011;11039;50.028;19.938;2024-03-02T11:29:58;5.88;;;4.75;;
21754;SDS011;11039;50.028;19.938;2024-03-02T11:32:06;7.95;;;5.60;;
21754;SDS011;11039;50.028;19.938;2024-03-02T11:34:35;5.57;;;4.85;;
21754;SDS011;11039;50.028;19.938;2024-03-02T11:37:04;6.47;;;5.03;;
21754;SDS011;11039;50.028;19.938;2024-03-02T11:39:30;5.53;;;4.72;;
21754;SDS011;11039;50.028;19.938;2024-03-02T11:41:57;7.05;;;5.10;;
21754;SDS011;11039;50.028;19.938;2024-03-02T11:44:27;5.68;;;5.00;;
21754;SDS011;11039;50.028;19.938;2024-03-02T11:46:59;5.38;;;4.50;;
21754;SDS011;11039;50.028;19.938;2024-03-02T11:49:38;5.75;;;4.43;;
21754;SDS011;11039;50.028;19.938;2024-03-02T11:52:05;6.07;;;4.72;;
21754;SDS011;11039;50.028;19.938;2024-03-02T11:54:45;4.78;;;4.07;;
21754;SDS011;11039;50.028;19.938;2024-03-02T11:57:12;6.13;;;4.53;;
21754;SDS011;11039;50.028;19.938;2024-03-02T11:59:39;8.23;;;4.20;;
21754;SDS011;11039;50.028;19.938;2024-03-02T12:02:05;7.93;;;4.68;;
21754;SDS011;11039;50.028;19.938;2024-03-02T12:04:31;8.10;;;4.97;;
21754;SDS011;11039;50.028;19.938;2024-03-02T12:06:59;6.55;;;4.78;;
21754;SDS011;11039;50.028;19.938;2024-03-02T12:09:26;5.78;;;4.90;;
21754;SDS011;11039;50.028;19.938;2024-03-02T12:12:08;6.78;;;4.40;;
21754;SDS011;11039;50.028;19.938;2024-03-02T12:14:37;5.63;;;4.43;;
21754;SDS011;11039;50.028;19.938;2024-03-02T12:17:04;6.57;;;4.20;;
21754;SDS011;11039;50.028;19.938;2024-03-02T12:19:34;9.07;;;4.28;;
21754;SDS011;11039;50.028;19.938;2024-03-02T12:22:00;5.68;;;3.97;;
21754;SDS011;11039;50.028;19.938;2024-03-02T12:24:27;6.60;;;3.95;;
21754;SDS011;11039;50.028;19.938;2024-03-02T12:26:53;4.45;;;3.83;;
21754;SDS011;11039;50.028;19.938;2024-03-02T12:29:19;4.50;;;3.80;;
21754;SDS011;11039;50.028;19.938;2024-03-02T12:31:49;5.05;;;4.00;;
21754;SDS011;11039;50.028;19.938;2024-03-02T12:34:15;6.88;;;4.07;;
21754;SDS011;11039;50.028;19.938;2024-03-02T12:36:42;4.85;;;3.97;;
21754;SDS011;11039;50.028;19.938;2024-03-02T12:39:08;5.47;;;4.05;;
21754;SDS011;11039;50.028;19.938;2024-03-02T12:41:37;4.53;;;3.85;;
21754;SDS011;11039;50.028;19.938;2024-03-02T12:44:04;5.20;;;4.18;;
21754;SDS011;11039;50.028;19.938;2024-03-02T12:46:30;5.97;;;4.75;;
21754;SDS011;11039;50.028;19.938;2024-03-02T12:49:10;5.78;;;4.35;;
21754;SDS011;11039;50.028;19.938;2024-03-02T12:51:40;6.93;;;4.60;;
21754;SDS011;11039;50.028;19.938;2024-03-02T12:54:07;6.60;;;4.35;;
21754;SDS011;11039;50.028;19.938;2024-03-02T12:56:33;7.28;;;4.70;;
21754;SDS011;11039;50.028;19.938;2024-03-02T12:58:59;6.82;;;4.43;;
21754;SDS011;11039;50.028;19.938;2024-03-02T13:01:25;6.93;;;4.70;;
21754;SDS011;11039;50.028;19.938;2024-03-02T13:03:54;5.68;;;4.20;;
21754;SDS011;11039;50.028;19.938;2024-03-02T13:06:22;4.93;;;4.40;;
21754;SDS011;11039;50.028;19.938;2024-03-02T13:08:48;6.75;;;4.57;;
21754;SDS011;11039;50.028;19.938;2024-03-02T13:11:15;6.60;;;4.50;;
21754;SDS011;11039;50.028;19.938;2024-03-02T13:13:41;5.60;;;4.40;;
21754;SDS011;11039;50.028;19.938;2024-03-02T13:16:08;6.00;;;4.32;;
21754;SDS011;11039;50.028;19.938;2024-03-02T13:18:35;5.75;;;4.43;;
21754;SDS011;11039;50.028;19.938;2024-03-02T13:21:01;5.55;;;4.47;;
21754;SDS011;11039;50.028;19.938;2024-03-02T13:23:27;5.60;;;4.47;;
21754;SDS011;11039;50.028;19.938;2024-03-02T13:25:56;6.75;;;4.20;;
21754;SDS011;11039;50.028;19.938;2024-03-02T13:28:23;5.40;;;3.85;;
21754;SDS011;11039;50.028;19.938;2024-03-02T13:30:49;5.15;;;3.95;;
21754;SDS011;11039;50.028;19.938;2024-03-02T13:33:15;6.68;;;4.22;;
21754;SDS011;11039;50.028;19.938;2024-03-02T13:35:44;5.57;;;4.57;;
21754;SDS011;11039;50.028;19.938;2024-03-02T13:38:10;6.15;;;4.05;;
21754;SDS011;11039;50.028;19.938;2024-03-02T13:40:36;6.32;;;4.25;;
21754;SDS011;11039;50.028;19.938;2024-03-02T13:43:02;5.15;;;4.07;;
21754;SDS011;11039;50.028;19.938;2024-03-02T13:45:29;15.07;;;10.57;;
21754;SDS011;11039;50.028;19.938;2024-03-02T13:47:55;24.40;;;18.70;;
21754;SDS011;11039;50.028;19.938;2024-03-02T13:50:21;23.13;;;17.48;;
21754;SDS011;11039;50.028;19.938;2024-03-02T13:52:47;23.85;;;18.38;;
21754;SDS011;11039;50.028;19.938;2024-03-02T13:55:13;23.75;;;19.25;;
21754;SDS011;11039;50.028;19.938;2024-03-02T13:57:39;26.85;;;19.55;;
21754;SDS011;11039;50.028;19.938;2024-03-02T14:00:05;27.27;;;19.38;;
21754;SDS011;11039;50.028;19.938;2024-03-02T14:02:35;28.13;;;20.70;;
21754;SDS011;11039;50.028;19.938;2024-03-02T14:05:01;30.13;;;21.20;;
21754;SDS011;11039;50.028;19.938;2024-03-02T14:07:27;28.88;;;20.42;;
21754;SDS011;11039;50.028;19.938;2024-03-02T14:09:53;32.63;;;21.17;;
21754;SDS011;11039;50.028;19.938;2024-03-02T14:12:20;28.95;;;20.27;;
21754;SDS011;11039;50.028;19.938;2024-03-02T14:14:47;29.48;;;21.55;;
21754;SDS011;11039;50.028;19.938;2024-03-02T14:17:16;28.10;;;19.60;;
21754;SDS011;11039;50.028;19.938;2024-03-02T14:19:42;26.85;;;20.35;;
21754;SDS011;11039;50.028;19.938;2024-03-02T14:22:08;29.75;;;19.98;;
21754;SDS011;11039;50.028;19.938;2024-03-02T14:24:34;26.35;;;20.98;;
21754;SDS011;11039;50.028;19.938;2024-03-02T14:27:00;28.95;;;20.88;;
21754;SDS011;11039;50.028;19.938;2024-03-02T14:29:28;27.10;;;22.00;;
21754;SDS011;11039;50.028;19.938;2024-03-02T14:31:54;31.65;;;22.35;;